SEAM/ATF METAR and TAF weather

Enter ICAO airport designator
Station Type Date Time Source
SEAM METAR 2019/04/18 21:00 UTC NOAA

SEAM 182100Z 13008KT 9999 SCT040 23/13 Q1022


Station Type Date Time Source
SEAM Decoded METAR 2019/04/18 21:00 UTC NOAA

Ambato / Chachoan, Ecuador (SEAM) 01-12S 078-34W
Apr 18, 2019 - 05:00 PM EDT / 2019.04.18 2100 UTC
Wind: from the SE (130 degrees) at 9 MPH (8 KT):0
Visibility: greater than 7 mile(s):0
Sky conditions: partly cloudy
Temperature: 73 F (23 C)
Dew Point: 55 F (13 C)
Relative Humidity: 53%
Pressure (altimeter): 30.18 in. Hg (1022 hPa)
ob: SEAM 182100Z 13008KT 9999 SCT040 23/13 Q1022
cycle: 21

Station Type Date Time Source
SEAM TAF UTC NOAA

Error!

Example: see airport list